createdAt,value
2018-01-24T00:00:32.569Z,87.27
2018-01-24T00:02:33.488Z,87.02
2018-01-24T00:03:32.956Z,87.31
2018-01-24T00:05:33.971Z,87.21
2018-01-24T00:06:34.030Z,86.83
2018-01-24T00:08:35.352Z,86.83
2018-01-24T00:09:34.815Z,86.55
2018-01-24T00:11:35.843Z,86.83
2018-01-24T00:12:34.938Z,85.97
2018-01-24T00:14:32.260Z,86.16
2018-01-24T00:15:30.745Z,85.97
2018-01-24T00:17:31.848Z,85.78
2018-01-24T00:18:31.187Z,85.78
2018-01-24T00:20:32.226Z,86.07
2018-01-24T00:21:31.627Z,86.07
2018-01-24T00:23:33.212Z,86.07
2018-01-24T00:24:32.129Z,85.88
2018-01-24T00:26:38.098Z,86.07
2018-01-24T00:27:38.105Z,85.41
2018-01-24T00:29:46.091Z,85.88
2018-01-24T00:30:46.108Z,85.97
2018-01-24T00:32:47.106Z,85.88
2018-01-24T00:33:47.176Z,85.97
2018-01-24T00:35:49.427Z,86.07
2018-01-24T00:39:03.480Z,85.88
2018-01-24T00:39:48.968Z,85.41
2018-01-24T00:41:54.858Z,85.41
2018-01-24T00:42:53.810Z,85.31
2018-01-24T00:44:58.977Z,85.41
2018-01-24T00:45:57.955Z,85.31
2018-01-24T00:47:59.331Z,85.12
2018-01-24T00:48:58.785Z,85.41
2018-01-24T00:51:01.838Z,85.88
2018-01-24T00:52:04.211Z,85.78
2018-01-24T00:54:09.839Z,85.50
2018-01-24T00:55:26.967Z,85.78
2018-01-24T00:57:43.845Z,85.69
2018-01-24T00:58:42.770Z,85.69
2018-01-24T01:01:28.692Z,85.88
2018-01-24T01:02:00.314Z,85.97
2018-01-24T01:04:14.504Z,85.88
2018-01-24T01:05:12.971Z,85.88
2018-01-24T01:08:00.686Z,85.31
2018-01-24T01:08:39.214Z,85.50
2018-01-24T01:10:53.660Z,85.21
2018-01-24T01:12:07.325Z,85.50
2018-01-24T01:14:01.407Z,85.50
2018-01-24T01:15:00.202Z,85.41
2018-01-24T01:17:12.901Z,85.41
2018-01-24T01:19:59.170Z,85.41
2018-01-24T01:21:00.947Z,85.41
2018-01-24T01:25:26.113Z,85.41
2018-01-24T01:28:41.181Z,85.21
2018-01-24T01:31:01.449Z,85.02
2018-01-24T01:32:03.288Z,84.64
2018-01-24T01:34:18.436Z,85.78
2018-01-24T01:35:17.381Z,84.92
2018-01-24T01:37:39.538Z,84.64
2018-01-24T01:38:37.261Z,84.83
2018-01-24T01:40:49.349Z,84.92
2018-01-24T01:41:49.433Z,84.74
2018-01-24T01:43:56.878Z,85.12
2018-01-24T01:44:55.421Z,84.16
2018-01-24T01:47:08.755Z,85.02
2018-01-24T01:47:58.414Z,85.12
2018-01-24T01:51:10.230Z,84.26
2018-01-24T01:51:52.693Z,85.02
2018-01-24T01:54:42.273Z,84.36
2018-01-24T01:55:42.242Z,84.16
2018-01-24T01:57:51.345Z,84.26
2018-01-24T01:58:43.223Z,85.12
2018-01-24T02:00:56.139Z,84.74
2018-01-24T02:01:56.585Z,84.74
2018-01-24T02:03:59.791Z,84.45
2018-01-24T02:04:56.365Z,84.45
2018-01-24T02:07:23.262Z,84.64
2018-01-24T02:07:58.848Z,84.45
2018-01-24T02:10:31.553Z,84.59
2018-01-24T02:11:29.992Z,84.59
2018-01-24T02:20:11.509Z,84.78
2018-01-24T02:24:40.908Z,85.06
2018-01-24T02:27:45.470Z,84.20
2018-01-24T02:36:38.283Z,84.59
2018-01-24T02:37:35.980Z,85.16
2018-01-24T02:39:27.916Z,84.40
2018-01-24T02:45:25.444Z,84.49
2018-01-24T02:46:42.368Z,84.30
2018-01-24T02:52:26.190Z,84.78
2018-01-24T02:53:59.927Z,84.97
2018-01-24T02:55:59.724Z,84.97
2018-01-24T02:57:11.922Z,84.78
2018-01-24T03:01:22.167Z,85.50
2018-01-24T03:03:59.759Z,85.41
2018-01-24T03:13:28.245Z,85.45
2018-01-24T03:14:26.790Z,85.50
2018-01-24T03:18:33.153Z,85.50
2018-01-24T03:19:30.988Z,85.54
2018-01-24T03:27:13.342Z,85.64
2018-01-24T03:30:11.749Z,85.54
2018-01-24T03:32:15.560Z,84.78
2018-01-24T03:33:15.971Z,85.16
2018-01-24T03:36:41.648Z,84.88
2018-01-24T03:36:54.332Z,84.88
2018-01-24T03:39:26.120Z,84.97
2018-01-24T03:40:25.137Z,85.06
2018-01-24T03:42:41.476Z,84.20
2018-01-24T03:43:25.484Z,84.69
2018-01-24T03:45:26.053Z,84.78
2018-01-24T03:46:58.118Z,84.59
2018-01-24T03:48:57.410Z,84.40
2018-01-24T03:49:43.133Z,84.40
2018-01-24T03:52:10.637Z,84.69
2018-01-24T03:53:11.980Z,84.59
2018-01-24T03:58:09.348Z,84.30
2018-01-24T03:58:39.988Z,84.49
2018-01-24T04:00:46.338Z,84.20
2018-01-24T04:01:45.906Z,84.40
2018-01-24T04:04:04.483Z,84.49
2018-01-24T04:05:03.656Z,84.59
2018-01-24T04:08:17.201Z,84.69
2018-01-24T04:09:12.131Z,84.49
2018-01-24T04:11:19.289Z,84.40
2018-01-24T04:12:35.988Z,84.40
2018-01-24T04:14:42.410Z,84.30
2018-01-24T04:15:24.749Z,84.49
2018-01-24T04:17:51.544Z,84.78
2018-01-24T04:18:36.384Z,83.96
2018-01-24T04:21:22.253Z,84.01
2018-01-24T04:21:58.061Z,84.78
2018-01-24T04:24:21.005Z,84.72
2018-01-24T04:25:01.251Z,84.69
2018-01-24T04:27:37.089Z,84.78
2018-01-24T04:28:19.204Z,84.72
2018-01-24T04:30:21.530Z,84.69
2018-01-24T04:31:42.181Z,84.49
2018-01-24T04:33:31.870Z,84.88
2018-01-24T04:34:27.706Z,84.72
2018-01-24T04:40:44.968Z,84.69
2018-01-24T04:42:05.918Z,84.69
2018-01-24T04:43:31.832Z,84.78
2018-01-24T04:44:31.176Z,84.49
2018-01-24T04:46:40.232Z,84.30
2018-01-24T04:47:37.736Z,84.30
2018-01-24T04:49:38.463Z,84.40
2018-01-24T04:50:40.993Z,84.49
2018-01-24T04:53:14.902Z,84.40
2018-01-24T04:53:40.765Z,84.49
2018-01-24T04:55:46.763Z,84.69
2018-01-24T04:56:46.624Z,84.20
2018-01-24T04:58:57.107Z,84.59
2018-01-24T04:59:56.527Z,84.20
2018-01-24T05:02:09.074Z,84.44
2018-01-24T05:03:09.071Z,84.59
2018-01-24T05:05:15.007Z,84.69
2018-01-24T05:06:15.206Z,84.30
2018-01-24T05:08:17.468Z,84.69
2018-01-24T05:09:16.334Z,84.59
2018-01-24T05:11:27.570Z,84.30
2018-01-24T05:12:26.419Z,84.40
2018-01-24T05:18:07.822Z,84.78
2018-01-24T05:19:05.176Z,84.78
2018-01-24T05:21:20.775Z,85.45
2018-01-24T05:22:33.514Z,85.73
2018-01-24T05:24:17.984Z,85.45
2018-01-24T05:25:19.413Z,85.25
2018-01-24T05:27:44.091Z,85.45
2018-01-24T05:28:27.770Z,85.45
2018-01-24T05:30:38.780Z,85.93
2018-01-24T05:31:53.857Z,86.02
2018-01-24T05:33:39.818Z,85.83
2018-01-24T05:37:33.731Z,86.11
2018-01-24T05:40:25.543Z,86.11
2018-01-24T05:42:47.232Z,86.11
2018-01-24T05:45:41.555Z,85.83
2018-01-24T05:58:23.542Z,86.26
2018-01-24T06:01:04.576Z,86.65
2018-01-24T06:02:03.938Z,86.65
2018-01-24T06:05:40.549Z,86.65
2018-01-24T06:05:42.294Z,86.36
2018-01-24T06:07:48.181Z,86.45
2018-01-24T06:08:44.341Z,86.45
2018-01-24T06:11:42.230Z,86.45
2018-01-24T06:12:17.904Z,86.55
2018-01-24T06:14:38.790Z,86.88
2018-01-24T06:17:05.419Z,86.83
2018-01-24T06:22:26.418Z,86.69
2018-01-24T06:24:44.209Z,86.74
2018-01-24T06:25:23.468Z,86.83
2018-01-24T06:38:22.782Z,87.60
2018-01-24T06:50:01.286Z,86.88
2018-01-24T06:51:01.438Z,87.07
2018-01-24T06:55:53.419Z,87.21
2018-01-24T06:56:32.846Z,87.21
2018-01-24T07:00:18.312Z,87.64
2018-01-24T07:01:05.066Z,87.64
2018-01-24T07:04:02.680Z,86.98
2018-01-24T07:04:59.684Z,86.59
2018-01-24T07:22:11.737Z,85.54
2018-01-24T07:23:11.209Z,85.93
2018-01-24T07:25:10.607Z,86.11
2018-01-24T07:26:08.628Z,85.54
2018-01-24T07:28:07.079Z,85.83
2018-01-24T07:29:07.605Z,85.64
2018-01-24T07:31:04.761Z,85.93
2018-01-24T07:32:04.769Z,85.73
2018-01-24T07:50:14.237Z,85.39
2018-01-24T07:51:13.826Z,85.21
2018-01-24T07:53:14.317Z,85.49
2018-01-24T07:54:14.156Z,85.49
2018-01-24T07:56:19.521Z,85.21
2018-01-24T07:57:19.221Z,85.49
2018-01-24T07:59:15.446Z,85.30
2018-01-24T08:00:14.666Z,85.30
2018-01-24T08:02:12.607Z,85.39
2018-01-24T08:03:12.599Z,85.39
2018-01-24T08:05:10.499Z,84.92
2018-01-24T08:06:09.977Z,85.77
2018-01-24T08:08:07.925Z,84.92
2018-01-24T08:09:06.434Z,84.92
2018-01-24T08:11:02.394Z,85.11
2018-01-24T08:12:01.892Z,85.11
2018-01-24T08:14:02.338Z,84.25
2018-01-24T08:15:02.320Z,84.34
2018-01-24T08:16:59.271Z,84.53
2018-01-24T08:17:58.357Z,85.21
2018-01-24T08:19:57.272Z,85.01
2018-01-24T08:20:56.387Z,84.34
2018-01-24T08:22:55.345Z,84.53
2018-01-24T08:23:54.338Z,84.63
2018-01-24T08:25:52.797Z,84.44
2018-01-24T08:26:52.293Z,84.44
2018-01-24T08:28:50.263Z,84.34
2018-01-24T08:29:50.245Z,84.25
2018-01-24T08:31:46.703Z,84.44
2018-01-24T08:32:46.718Z,84.77
2018-01-24T08:34:46.780Z,83.91
2018-01-24T08:35:46.682Z,83.81
2018-01-24T08:37:45.613Z,83.62
2018-01-24T08:38:45.588Z,83.43
2018-01-24T08:40:43.686Z,83.72
2018-01-24T08:41:43.646Z,83.62
2018-01-24T08:43:41.260Z,83.43
2018-01-24T08:44:40.642Z,83.72
2018-01-24T08:46:44.021Z,83.14
2018-01-24T08:47:42.134Z,83.34
2018-01-24T08:49:40.088Z,82.86
2018-01-24T08:50:39.553Z,82.95
2018-01-24T08:52:39.569Z,82.95
2018-01-24T08:53:40.550Z,82.95
2018-01-24T08:55:38.988Z,82.38
2018-01-24T08:56:37.455Z,82.52
2018-01-24T08:58:37.924Z,81.85
2018-01-24T08:59:35.417Z,82.14
2018-01-24T09:01:33.390Z,82.04
2018-01-24T09:02:34.413Z,81.56
2018-01-24T09:04:31.827Z,81.66
2018-01-24T09:05:31.316Z,81.66
2018-01-24T09:07:29.358Z,81.56
2018-01-24T09:08:29.260Z,81.56
2018-01-24T09:10:29.754Z,81.18
2018-01-24T09:11:30.255Z,81.09
2018-01-24T09:13:28.688Z,81.37
2018-01-24T09:14:27.674Z,81.09
2018-01-24T09:16:29.701Z,81.27
2018-01-24T09:17:28.677Z,81.18
2018-01-24T09:19:30.093Z,81.37
2018-01-24T09:20:28.552Z,81.18
2018-01-24T09:22:29.024Z,80.13
2018-01-24T09:23:29.060Z,80.90
2018-01-24T09:25:29.494Z,80.17
2018-01-24T09:26:29.506Z,80.36
2018-01-24T09:28:31.396Z,79.79
2018-01-24T09:29:29.897Z,79.98
2018-01-24T09:31:30.522Z,79.88
2018-01-24T09:32:30.334Z,79.60
2018-01-24T09:34:28.865Z,80.17
2018-01-24T09:35:29.783Z,79.41
2018-01-24T09:37:28.738Z,79.41
2018-01-24T09:38:26.901Z,79.41
2018-01-24T09:40:24.844Z,79.12
2018-01-24T09:41:26.365Z,78.93
2018-01-24T09:43:22.805Z,78.78
2018-01-24T09:44:23.342Z,78.78
2018-01-24T09:46:21.247Z,78.11
2018-01-24T09:47:21.743Z,78.30
2018-01-24T09:49:16.824Z,78.01
2018-01-24T09:50:16.795Z,77.92
2018-01-24T09:52:15.265Z,77.92
2018-01-24T09:53:14.860Z,78.11
2018-01-24T09:55:12.988Z,77.63
2018-01-24T09:56:12.987Z,77.44
2018-01-24T09:58:11.990Z,77.34
2018-01-24T09:59:11.108Z,77.34
2018-01-24T10:01:09.176Z,77.28
2018-01-24T10:02:09.172Z,77.38
2018-01-24T10:04:07.140Z,77.09
2018-01-24T10:05:07.112Z,76.90
2018-01-24T10:07:05.572Z,76.42
2018-01-24T10:08:05.054Z,76.14
2018-01-24T10:10:03.022Z,76.33
2018-01-24T10:11:03.037Z,75.95
2018-01-24T10:13:01.120Z,75.51
2018-01-24T10:14:01.082Z,75.47
2018-01-24T10:15:57.064Z,75.60
2018-01-24T10:16:57.569Z,75.47
2018-01-24T10:18:55.497Z,75.66
2018-01-24T10:19:55.000Z,75.47
2018-01-24T10:21:50.908Z,75.37
2018-01-24T10:22:50.894Z,75.66
2018-01-24T10:24:48.982Z,75.85
2018-01-24T10:25:49.023Z,75.27
2018-01-24T10:27:47.982Z,75.51
2018-01-24T10:28:48.107Z,75.76
2018-01-24T10:30:47.120Z,75.95
2018-01-24T10:31:46.606Z,75.95
2018-01-24T10:33:48.710Z,75.76
2018-01-24T10:34:47.138Z,76.14
2018-01-24T10:36:47.695Z,76.14
2018-01-24T10:37:47.632Z,77.00
2018-01-24T10:40:00.365Z,76.90
2018-01-24T10:40:58.365Z,76.71
2018-01-24T10:43:00.560Z,76.62
2018-01-24T10:44:01.621Z,77.00
2018-01-24T10:46:04.995Z,76.14
2018-01-24T10:47:02.904Z,77.00
2018-01-24T10:49:05.804Z,76.33
2018-01-24T10:50:05.360Z,76.14
2018-01-24T10:52:06.724Z,76.04
2018-01-24T10:53:04.731Z,76.14
2018-01-24T10:55:05.255Z,75.95
2018-01-24T10:56:05.270Z,75.51
2018-01-24T10:58:06.171Z,75.22
2018-01-24T10:59:06.030Z,75.12
2018-01-24T11:06:59.797Z,73.69
2018-01-24T11:07:59.809Z,73.59
2018-01-24T11:10:01.168Z,73.59
2018-01-24T11:11:01.143Z,74.16
2018-01-24T11:18:00.124Z,73.11
2018-01-24T11:18:59.306Z,73.11
2018-01-24T11:21:03.593Z,73.30
2018-01-24T11:22:00.662Z,72.44
2018-01-24T11:24:05.646Z,72.54
2018-01-24T11:25:04.676Z,72.67
2018-01-24T11:27:08.986Z,72.38
2018-01-24T11:28:06.838Z,72.67
2018-01-24T11:30:21.784Z,72.58
2018-01-24T11:31:20.215Z,72.19
2018-01-24T11:33:25.099Z,72.38
2018-01-24T11:34:25.191Z,72.96
2018-01-24T11:36:27.898Z,72.77
2018-01-24T11:37:26.903Z,72.29
2018-01-24T11:40:17.202Z,72.44
2018-01-24T11:41:18.492Z,72.58
2018-01-24T11:43:26.735Z,73.30
2018-01-24T11:46:16.344Z,72.83
2018-01-24T11:46:53.111Z,73.05
2018-01-24T11:49:01.867Z,73.15
2018-01-24T11:50:01.265Z,72.67
2018-01-24T11:52:14.915Z,72.48
2018-01-24T11:53:17.250Z,72.58
2018-01-24T11:55:22.455Z,72.38
2018-01-24T11:57:48.128Z,72.58
2018-01-24T11:59:01.859Z,72.77
2018-01-24T12:00:47.075Z,72.19
2018-01-24T12:01:47.296Z,72.19
2018-01-24T12:03:58.714Z,72.19
2018-01-24T12:04:58.335Z,72.19
2018-01-24T12:07:00.811Z,72.29
2018-01-24T12:08:00.637Z,72.38
2018-01-24T12:10:01.628Z,72.38
2018-01-24T12:11:01.072Z,72.19
2018-01-24T12:13:03.151Z,72.19
2018-01-24T12:14:03.159Z,72.09
2018-01-24T12:16:07.894Z,72.77
2018-01-24T12:17:06.174Z,72.77
2018-01-24T12:19:07.033Z,72.29
2018-01-24T12:20:06.510Z,72.00
2018-01-24T12:22:07.436Z,72.25
2018-01-24T12:23:06.936Z,72.44
2018-01-24T12:25:08.265Z,72.54
2018-01-24T12:26:07.352Z,72.73
2018-01-24T12:28:08.814Z,72.67
2018-01-24T12:29:08.349Z,72.73
2018-01-24T12:31:09.337Z,72.16
2018-01-24T12:32:08.770Z,72.06
2018-01-24T12:34:04.267Z,72.00
2018-01-24T12:35:05.215Z,71.33
2018-01-24T12:37:03.200Z,71.04
2018-01-24T12:38:02.208Z,71.14
2018-01-24T12:40:02.142Z,71.23
2018-01-24T12:41:01.560Z,71.14
2018-01-24T12:42:59.021Z,71.04
2018-01-24T12:43:58.265Z,70.76
2018-01-24T12:45:59.700Z,71.23
2018-01-24T12:46:58.674Z,70.95
2018-01-24T12:48:57.211Z,72.34
2018-01-24T12:49:56.792Z,72.25
2018-01-24T12:51:57.741Z,72.06
2018-01-24T12:52:55.775Z,72.34
2018-01-24T12:54:53.302Z,72.06
2018-01-24T12:55:52.784Z,72.06
2018-01-24T12:57:49.757Z,71.97
2018-01-24T12:58:48.750Z,72.25
2018-01-24T13:00:46.809Z,72.34
2018-01-24T13:01:47.240Z,72.25
2018-01-24T13:03:42.647Z,72.25
2018-01-24T13:04:43.590Z,71.87
2018-01-24T13:06:39.609Z,72.25
2018-01-24T13:07:38.601Z,72.16
2018-01-24T13:09:34.557Z,71.97
2018-01-24T13:10:35.593Z,72.16
2018-01-24T13:12:30.532Z,71.97
2018-01-24T13:13:32.039Z,71.97
2018-01-24T13:15:26.506Z,72.54
2018-01-24T13:16:26.456Z,72.44
2018-01-24T13:18:24.960Z,72.44
2018-01-24T13:19:24.951Z,72.16
2018-01-24T13:21:23.948Z,72.44
2018-01-24T13:22:22.496Z,72.44
2018-01-24T13:24:20.452Z,72.50
2018-01-24T13:25:20.436Z,72.41
2018-01-24T13:27:18.910Z,72.79
2018-01-24T13:28:18.898Z,72.22
2018-01-24T13:30:18.850Z,72.98
2018-01-24T13:31:16.481Z,73.17
2018-01-24T13:33:12.948Z,72.79
2018-01-24T13:34:12.433Z,72.50
2018-01-24T13:36:08.921Z,72.88
2018-01-24T13:37:08.435Z,72.50
2018-01-24T13:39:06.934Z,72.50
2018-01-24T13:40:06.502Z,73.02
2018-01-24T13:42:04.508Z,72.54
2018-01-24T13:43:05.495Z,72.22
2018-01-24T13:45:06.477Z,72.50
2018-01-24T13:46:05.471Z,72.73
2018-01-24T13:48:01.912Z,72.22
2018-01-24T13:49:01.396Z,72.50
2018-01-24T13:51:00.865Z,72.50
2018-01-24T13:51:58.956Z,72.31
2018-01-24T13:53:56.948Z,72.31
2018-01-24T13:54:56.931Z,72.22
2018-01-24T13:56:54.967Z,72.50
2018-01-24T13:57:54.992Z,72.12
2018-01-24T13:59:52.950Z,72.31
2018-01-24T14:00:52.918Z,72.79
2018-01-24T14:02:49.372Z,72.50
2018-01-24T14:03:48.856Z,72.31
2018-01-24T14:05:44.803Z,72.69
2018-01-24T14:06:44.812Z,72.60
2018-01-24T14:08:40.781Z,72.41
2018-01-24T14:09:40.775Z,72.31
2018-01-24T14:11:37.227Z,72.31
2018-01-24T14:12:36.767Z,72.98
2018-01-24T14:14:32.652Z,72.88
2018-01-24T14:15:33.536Z,72.79
2018-01-24T14:17:29.649Z,72.79
2018-01-24T14:18:29.635Z,72.69
2018-01-24T14:20:24.610Z,72.50
2018-01-24T14:21:25.093Z,73.17
2018-01-24T14:23:22.516Z,73.17
2018-01-24T14:24:22.536Z,73.08
2018-01-24T14:26:20.597Z,72.69
2018-01-24T14:27:20.617Z,72.69
2018-01-24T14:29:17.054Z,73.36
2018-01-24T14:30:16.541Z,73.36
2018-01-24T14:32:12.993Z,73.75
2018-01-24T14:33:12.614Z,73.46
2018-01-24T14:35:09.347Z,73.65
2018-01-24T14:36:08.916Z,73.46
2018-01-24T14:38:04.376Z,73.27
2018-01-24T14:39:05.367Z,73.75
2018-01-24T14:41:00.375Z,73.55
2018-01-24T14:42:00.359Z,73.55
2018-01-24T14:43:56.327Z,73.46
2018-01-24T14:44:56.809Z,73.55
2018-01-24T14:46:52.251Z,73.43
2018-01-24T14:49:13.594Z,73.52
2018-01-24T14:50:11.497Z,73.61
2018-01-24T14:53:07.979Z,73.99
2018-01-24T14:55:13.691Z,73.52
2018-01-24T14:56:07.145Z,73.52
2018-01-24T14:58:03.150Z,73.52
2018-01-24T14:59:04.036Z,73.75
2018-01-24T15:01:01.568Z,73.71
2018-01-24T15:02:01.615Z,73.04
2018-01-24T15:03:57.065Z,72.75
2018-01-24T15:04:56.997Z,73.61
2018-01-24T15:06:52.939Z,73.43
2018-01-24T15:07:52.960Z,73.61
2018-01-24T15:09:50.961Z,73.43
2018-01-24T15:10:52.923Z,73.71
2018-01-24T15:12:47.392Z,73.61
2018-01-24T15:13:47.377Z,72.94
2018-01-24T15:15:46.355Z,73.14
2018-01-24T15:16:45.869Z,72.94
2018-01-24T15:18:40.949Z,72.66
2018-01-24T15:19:40.892Z,72.66
2018-01-24T15:21:38.344Z,73.61
2018-01-24T15:22:36.815Z,73.33
2018-01-24T15:24:32.932Z,73.43
2018-01-24T15:25:32.933Z,73.33
2018-01-24T15:27:28.918Z,73.71
2018-01-24T15:28:28.989Z,73.99
2018-01-24T15:30:25.354Z,73.43
2018-01-24T15:31:25.357Z,73.43
2018-01-24T15:33:21.309Z,73.52
2018-01-24T15:34:21.315Z,74.09
2018-01-24T15:36:16.741Z,73.80
2018-01-24T15:37:16.763Z,73.52
2018-01-24T15:39:16.707Z,73.99
2018-01-24T15:40:14.684Z,74.48
2018-01-24T15:42:14.158Z,74.28
2018-01-24T15:43:13.638Z,73.80
2018-01-24T15:45:11.757Z,73.48
2018-01-24T15:46:10.906Z,73.77
2018-01-24T15:48:06.773Z,73.96
2018-01-24T15:49:07.262Z,74.38
2018-01-24T15:51:06.663Z,74.05
2018-01-24T15:52:05.241Z,74.15
2018-01-24T15:54:03.224Z,73.77
2018-01-24T15:55:03.668Z,73.77
2018-01-24T15:57:00.824Z,74.24
2018-01-24T15:58:00.829Z,74.34
2018-01-24T15:59:59.271Z,73.77
2018-01-24T16:00:58.742Z,73.67
2018-01-24T16:02:55.775Z,73.86
2018-01-24T16:03:54.721Z,73.67
2018-01-24T16:05:51.181Z,73.48
2018-01-24T16:06:50.677Z,72.72
2018-01-24T16:08:46.686Z,72.91
2018-01-24T16:09:47.647Z,72.72
2018-01-24T16:11:44.569Z,72.72
2018-01-24T16:12:44.564Z,72.72
2018-01-24T16:14:40.520Z,73.19
2018-01-24T16:15:41.024Z,73.48
2018-01-24T16:17:36.968Z,73.48
2018-01-24T16:18:36.453Z,73.39
2018-01-24T16:20:35.930Z,72.81
2018-01-24T16:21:34.398Z,72.91
2018-01-24T16:23:33.895Z,73.77
2018-01-24T16:24:32.870Z,72.91
2018-01-24T16:26:32.848Z,73.10
2018-01-24T16:27:32.815Z,72.81
2018-01-24T16:29:32.864Z,72.91
2018-01-24T16:30:30.746Z,72.81
2018-01-24T16:32:29.237Z,72.91
2018-01-24T16:33:29.218Z,72.91
2018-01-24T16:35:30.656Z,72.33
2018-01-24T16:36:29.150Z,72.24
2018-01-24T16:38:28.102Z,72.14
2018-01-24T16:39:27.133Z,71.95
2018-01-24T16:41:28.687Z,72.43
2018-01-24T16:42:29.532Z,72.33
2018-01-24T16:44:29.090Z,72.43
2018-01-24T16:45:26.728Z,72.14
2018-01-24T16:47:27.173Z,72.53
2018-01-24T16:48:26.263Z,72.33
2018-01-24T16:50:27.240Z,72.62
2018-01-24T16:51:26.736Z,72.62
2018-01-24T16:53:28.213Z,72.43
2018-01-24T16:54:27.770Z,72.33
2018-01-24T16:56:28.205Z,73.29
2018-01-24T16:57:25.528Z,72.24
2018-01-24T16:59:23.344Z,72.24
2018-01-24T17:00:24.301Z,72.62
2018-01-24T17:02:22.240Z,72.81
2018-01-24T17:03:22.202Z,73.19
2018-01-24T17:05:20.738Z,73.29
2018-01-24T17:06:20.699Z,73.19
2018-01-24T17:08:16.621Z,73.19
2018-01-24T17:09:16.125Z,72.81
2018-01-24T17:11:14.590Z,73.58
2018-01-24T17:12:14.216Z,73.67
2018-01-24T17:14:15.221Z,73.67
2018-01-24T17:15:14.780Z,73.96
2018-01-24T17:17:16.114Z,73.48
2018-01-24T17:18:16.608Z,73.63
2018-01-24T17:20:16.057Z,74.15
2018-01-24T17:21:15.634Z,73.96
2018-01-24T17:23:17.513Z,73.96
2018-01-24T17:24:17.017Z,74.15
2018-01-24T17:26:16.536Z,74.69
2018-01-24T17:27:17.534Z,74.59
2018-01-24T17:29:16.535Z,74.98
2018-01-24T17:30:15.519Z,74.59
2018-01-24T17:32:14.665Z,75.30
2018-01-24T17:33:13.590Z,75.07
2018-01-24T17:35:13.830Z,75.10
2018-01-24T17:36:13.891Z,75.07
2018-01-24T17:38:14.803Z,75.16
2018-01-24T17:39:14.800Z,74.59
2018-01-24T17:41:15.323Z,74.78
2018-01-24T17:42:16.293Z,74.88
2018-01-24T17:44:16.134Z,75.35
2018-01-24T17:45:16.115Z,75.07
2018-01-24T17:47:15.074Z,75.07
2018-01-24T17:48:14.056Z,74.98
2018-01-24T17:50:13.525Z,74.78
2018-01-24T17:51:13.015Z,75.16
2018-01-24T17:53:12.656Z,74.88
2018-01-24T17:54:12.610Z,74.98
2018-01-24T17:56:14.621Z,74.88
2018-01-24T17:57:14.005Z,75.26
2018-01-24T17:59:12.874Z,75.26
2018-01-24T18:00:12.033Z,74.88
2018-01-24T18:02:42.113Z,75.35
2018-01-24T18:04:59.256Z,75.74
2018-01-24T18:05:59.798Z,75.07
2018-01-24T18:07:56.205Z,74.59
2018-01-24T18:08:56.097Z,74.40
2018-01-24T18:11:05.370Z,74.59
2018-01-24T18:12:05.142Z,74.49
2018-01-24T18:14:03.374Z,74.78
2018-01-24T18:15:02.353Z,74.69
2018-01-24T18:17:01.385Z,73.92
2018-01-24T18:18:00.423Z,73.92
2018-01-24T18:19:58.392Z,72.87
2018-01-24T18:20:58.346Z,73.35
2018-01-24T18:22:54.339Z,72.58
2018-01-24T18:23:54.310Z,72.49
2018-01-24T18:25:50.264Z,72.87
2018-01-24T18:26:50.245Z,73.07
2018-01-24T18:28:49.216Z,72.39
2018-01-24T18:29:48.280Z,72.20
2018-01-24T18:31:49.245Z,72.01
2018-01-24T18:32:49.204Z,72.01
2018-01-24T18:34:47.632Z,72.39
2018-01-24T18:35:47.140Z,72.20
2018-01-24T18:37:44.592Z,72.11
2018-01-24T18:38:45.054Z,71.92
2018-01-24T18:40:43.013Z,72.20
2018-01-24T18:41:42.500Z,72.11
2018-01-24T18:43:42.009Z,71.92
2018-01-24T18:44:40.524Z,72.01
2018-01-24T18:46:38.529Z,72.11
2018-01-24T18:47:38.463Z,72.20
2018-01-24T18:49:35.968Z,72.01
2018-01-24T18:50:34.450Z,72.11
2018-01-24T18:52:33.378Z,72.01
2018-01-24T18:53:32.922Z,71.92
2018-01-24T18:55:30.786Z,71.88
2018-01-24T18:56:31.789Z,72.07
2018-01-24T18:58:30.258Z,72.26
2018-01-24T18:59:28.255Z,71.88
2018-01-24T19:01:27.798Z,72.07
2018-01-24T19:02:26.306Z,72.26
2018-01-24T19:04:24.332Z,72.55
2018-01-24T19:05:24.347Z,72.07
2018-01-24T19:07:23.229Z,72.17
2018-01-24T19:08:22.203Z,72.36
2018-01-24T19:10:19.217Z,72.26
2018-01-24T19:11:18.206Z,72.07
2018-01-24T19:13:16.264Z,72.36
2018-01-24T19:14:16.676Z,72.07
2018-01-24T19:16:16.684Z,72.74
2018-01-24T19:17:17.084Z,72.55
2018-01-24T19:19:15.526Z,72.17
2018-01-24T19:20:14.593Z,71.50
2018-01-24T19:22:15.971Z,72.07
2018-01-24T19:23:15.458Z,72.07
2018-01-24T19:25:13.381Z,71.88
2018-01-24T19:26:12.999Z,71.98
2018-01-24T19:28:11.488Z,71.88
2018-01-24T19:29:10.965Z,71.88
2018-01-24T19:31:09.883Z,71.78
2018-01-24T19:32:08.900Z,71.98
2018-01-24T19:34:06.872Z,71.02
2018-01-24T19:35:06.876Z,71.02
2018-01-24T19:37:04.830Z,71.31
2018-01-24T19:38:05.332Z,71.21
2018-01-24T19:40:00.770Z,71.41
2018-01-24T19:41:02.261Z,71.31
2018-01-24T19:42:56.695Z,71.12
2018-01-24T19:43:56.810Z,70.92
2018-01-24T19:45:55.148Z,70.92
2018-01-24T19:46:54.686Z,71.12
2018-01-24T19:48:52.611Z,70.64
2018-01-24T19:49:53.096Z,70.54
2018-01-24T19:51:50.496Z,70.77
2018-01-24T19:52:50.569Z,70.87
2018-01-24T19:54:48.484Z,70.67
2018-01-24T19:55:49.375Z,70.36
2018-01-24T19:57:44.438Z,70.45
2018-01-24T19:58:44.381Z,70.54
2018-01-24T20:00:42.480Z,71.31
2018-01-24T20:01:42.452Z,70.83
2018-01-24T20:03:41.130Z,70.26
2018-01-24T20:04:40.380Z,70.48
2018-01-24T20:06:38.383Z,70.45
2018-01-24T20:07:39.352Z,70.64
2018-01-24T20:09:37.331Z,70.64
2018-01-24T20:10:37.336Z,70.54
2018-01-24T20:12:32.404Z,71.02
2018-01-24T20:13:32.866Z,71.02
2018-01-24T20:15:31.833Z,71.02
2018-01-24T20:16:31.361Z,70.54
2018-01-24T20:18:27.376Z,71.31
2018-01-24T20:19:26.471Z,71.02
2018-01-24T20:21:24.371Z,71.12
2018-01-24T20:22:25.878Z,71.41
2018-01-24T20:24:22.791Z,71.78
2018-01-24T20:25:23.812Z,71.88
2018-01-24T20:27:20.298Z,71.98
2018-01-24T20:28:20.217Z,72.36
2018-01-24T20:30:21.757Z,72.71
2018-01-24T20:31:20.753Z,72.42
2018-01-24T20:33:21.775Z,72.42
2018-01-24T20:34:25.723Z,72.89
2018-01-24T20:36:17.149Z,72.80
2018-01-24T20:37:17.187Z,72.61
2018-01-24T20:39:16.094Z,72.71
2018-01-24T20:40:15.577Z,72.61
2018-01-24T20:42:11.139Z,72.80
2018-01-24T20:43:12.002Z,73.56
2018-01-24T20:45:08.996Z,73.28
2018-01-24T20:46:08.976Z,72.89
2018-01-24T20:48:04.914Z,72.80
2018-01-24T20:49:04.956Z,72.89
2018-01-24T20:51:00.885Z,73.56
2018-01-24T20:52:01.470Z,72.80
2018-01-24T20:53:58.909Z,72.80
2018-01-24T20:54:58.912Z,72.80
2018-01-24T20:56:56.994Z,72.80
2018-01-24T20:57:58.931Z,72.61
2018-01-24T20:59:55.962Z,72.71
2018-01-24T21:00:55.466Z,72.80
2018-01-24T21:02:53.412Z,72.89
2018-01-24T21:03:52.913Z,72.99
2018-01-24T21:05:51.836Z,72.89
2018-01-24T21:06:50.929Z,72.51
2018-01-24T21:08:49.434Z,72.89
2018-01-24T21:09:49.392Z,72.80
2018-01-24T21:11:46.816Z,72.89
2018-01-24T21:12:46.810Z,72.99
2018-01-24T21:14:45.263Z,72.80
2018-01-24T21:15:45.767Z,72.89
2018-01-24T21:17:42.793Z,72.71
2018-01-24T21:18:42.803Z,72.80
2018-01-24T21:20:39.768Z,73.28
2018-01-24T21:21:39.726Z,72.89
2018-01-24T21:23:35.659Z,73.08
2018-01-24T21:24:35.680Z,72.80
2018-01-24T21:26:32.617Z,72.80
2018-01-24T21:27:32.136Z,72.80
2018-01-24T21:29:28.053Z,72.80
2018-01-24T21:30:27.613Z,72.89
2018-01-24T21:32:26.013Z,72.80
2018-01-24T21:33:26.503Z,72.89
2018-01-24T21:35:22.058Z,73.08
2018-01-24T21:36:21.777Z,72.80
2018-01-24T21:38:17.617Z,72.61
2018-01-24T21:39:17.639Z,72.61
2018-01-24T21:41:14.121Z,73.18
2018-01-24T21:42:14.149Z,72.89
2018-01-24T21:44:09.535Z,72.89
2018-01-24T21:45:09.499Z,72.89
2018-01-24T21:47:06.949Z,72.89
2018-01-24T21:48:05.479Z,72.61
2018-01-24T21:50:02.436Z,72.80
2018-01-24T21:51:02.465Z,72.61
2018-01-24T21:52:58.430Z,73.28
2018-01-24T21:53:58.341Z,72.89
2018-01-24T21:55:54.320Z,72.80
2018-01-24T21:56:54.284Z,72.99
2018-01-24T21:58:51.838Z,72.80
2018-01-24T21:59:50.465Z,73.28
2018-01-24T22:01:46.401Z,72.80
2018-01-24T22:02:46.350Z,73.18
2018-01-24T22:04:43.311Z,73.22
2018-01-24T22:05:42.307Z,73.18
2018-01-24T22:07:38.245Z,72.89
2018-01-24T22:08:38.765Z,73.08
2018-01-24T22:10:34.726Z,72.13